Time;durP1;ratioP1;P1;durP2;ratioP2;P2;SDS_P1;SDS_P2;PMS_P1;PMS_P2;Temp;Humidity;BMP_temperature;BMP_pressure;BME280_temperature;BME280_humidity;BME280_pressure;Samples;Min_cycle;Max_cycle;Signal;HPM_P1;HPM_P2
2021/01/28 00:00:54;;;;;;;17.48;8.02;;;7.80;67.60;;;;;;6189516;28;20046;-74
2021/01/28 00:03:55;;;;;;;19.08;7.95;;;7.80;67.80;;;;;;6182487;28;20065;-74
2021/01/28 00:06:57;;;;;;;16.60;7.22;;;7.80;67.80;;;;;;6182233;28;20038;-75
2021/01/28 00:09:58;;;;;;;15.10;7.32;;;7.90;67.80;;;;;;6182296;28;20060;-75
2021/01/28 00:13:00;;;;;;;16.67;7.28;;;7.90;67.70;;;;;;6196235;28;20058;-75
2021/01/28 00:16:01;;;;;;;17.67;7.95;;;7.90;67.70;;;;;;6205105;28;20034;-74
2021/01/28 00:19:02;;;;;;;20.67;7.63;;;7.90;67.60;;;;;;6180838;28;20035;-75
2021/01/28 00:22:04;;;;;;;16.65;7.90;;;8.00;67.60;;;;;;6179987;28;20113;-74
2021/01/28 00:25:06;;;;;;;15.88;7.72;;;8.00;67.50;;;;;;6183110;28;20031;-74
2021/01/28 00:28:08;;;;;;;14.90;7.47;;;8.00;67.30;;;;;;6187208;28;20122;-73
2021/01/28 00:31:10;;;;;;;21.13;8.52;;;8.00;67.30;;;;;;6194991;28;20072;-75
2021/01/28 00:34:11;;;;;;;16.40;7.53;;;8.00;67.30;;;;;;6189335;28;20367;-75
2021/01/28 00:37:12;;;;;;;13.90;6.93;;;8.00;67.30;;;;;;6189632;28;20034;-74
2021/01/28 00:40:13;;;;;;;14.90;7.55;;;8.00;67.10;;;;;;6202839;28;20125;-75
2021/01/28 00:43:14;;;;;;;19.33;7.63;;;7.90;67.80;;;;;;6187676;28;20452;-73
2021/01/28 00:46:15;;;;;;;16.10;7.43;;;7.90;67.10;;;;;;6195997;28;20101;-74
2021/01/28 00:49:16;;;;;;;13.50;6.97;;;7.90;67.20;;;;;;6202461;28;20123;-75
2021/01/28 00:52:17;;;;;;;16.00;8.00;;;7.90;67.40;;;;;;6185285;28;20045;-74
2021/01/28 00:55:20;;;;;;;20.00;8.52;;;7.80;67.40;;;;;;6186652;28;20053;-74
2021/01/28 00:58:26;;;;;;;15.65;8.10;;;7.90;67.60;;;;;;6193686;28;20058;-73
2021/01/28 01:01:28;;;;;;;16.40;7.35;;;7.90;67.70;;;;;;6226903;28;20052;-74
2021/01/28 01:04:29;;;;;;;16.80;8.23;;;7.90;67.80;;;;;;6206893;28;20033;-74
2021/01/28 01:07:30;;;;;;;17.75;8.43;;;7.90;67.80;;;;;;6217648;28;20050;-74
2021/01/28 01:10:40;;;;;;;17.52;7.72;;;7.90;67.70;;;;;;6201375;28;20415;-74
2021/01/28 01:13:42;;;;;;;15.18;7.55;;;7.90;67.80;;;;;;6197926;28;20070;-74
2021/01/28 01:17:03;;;;;;;22.13;7.68;;;7.90;67.70;;;;;;6215755;28;20106;-74
2021/01/28 01:20:08;;;;;;;11.48;6.82;;;7.90;67.70;;;;;;6199693;28;20057;-74
2021/01/28 01:23:14;;;;;;;21.27;7.60;;;7.80;67.70;;;;;;6193123;28;20039;-74
2021/01/28 01:26:39;;;;;;;14.05;6.88;;;7.80;67.80;;;;;;6203096;28;20034;-74
2021/01/28 01:29:40;;;;;;;15.65;7.88;;;7.80;67.90;;;;;;6191135;28;20053;-75
2021/01/28 01:33:00;;;;;;;14.23;7.85;;;7.80;67.90;;;;;;6205042;28;20042;-74
2021/01/28 01:36:12;;;;;;;21.48;7.63;;;7.80;67.90;;;;;;6203293;28;20033;-74
2021/01/28 01:39:22;;;;;;;15.30;7.38;;;7.90;67.90;;;;;;6189510;28;20030;-74
2021/01/28 01:42:24;;;;;;;19.15;6.90;;;7.90;67.90;;;;;;6220571;28;20061;-74
2021/01/28 01:45:35;;;;;;;13.07;6.78;;;7.90;67.90;;;;;;6186956;28;20101;-75
2021/01/28 01:48:50;;;;;;;18.50;6.90;;;7.90;67.80;;;;;;6205118;28;20033;-75
2021/01/28 01:51:56;;;;;;;14.30;6.55;;;7.90;67.60;;;;;;6189169;28;20366;-75
2021/01/28 01:55:10;;;;;;;18.35;6.55;;;7.90;67.60;;;;;;6212983;28;20037;-75
2021/01/28 01:58:50;;;;;;;11.15;6.35;;;8.00;67.70;;;;;;6186141;28;20371;-74
2021/01/28 02:02:24;;;;;;;20.98;7.43;;;8.00;67.70;;;;;;6170312;28;20038;-73
2021/01/28 02:06:03;;;;;;;14.05;6.85;;;8.00;67.50;;;;;;6062581;29;20041;-76
2021/01/28 02:09:27;;;;;;;12.25;6.22;;;7.90;67.60;;;;;;6072548;29;20037;-73
2021/01/28 02:12:44;;;;;;;13.73;7.15;;;7.90;67.90;;;;;;6052413;29;20395;-74
2021/01/28 02:15:52;;;;;;;13.82;6.78;;;7.80;68.10;;;;;;6059461;29;20064;-77
2021/01/28 02:19:00;;;;;;;10.80;5.90;;;7.80;68.30;;;;;;6059439;29;20048;-75
2021/01/28 02:22:02;;;;;;;18.27;6.45;;;7.80;68.30;;;;;;6052195;29;20062;-75
2021/01/28 02:25:23;;;;;;;16.77;7.68;;;7.80;68.50;;;;;;6061239;29;20040;-73
2021/01/28 02:28:24;;;;;;;16.08;7.43;;;7.80;68.50;;;;;;6056664;29;20403;-73
2021/01/28 02:31:28;;;;;;;12.90;5.97;;;7.90;68.60;;;;;;6058451;29;20063;-74
2021/01/28 02:34:31;;;;;;;12.48;6.45;;;7.80;69.20;;;;;;6055319;29;20029;-74
2021/01/28 02:37:38;;;;;;;10.65;6.25;;;7.90;68.50;;;;;;6057443;29;20036;-74
2021/01/28 02:40:56;;;;;;;13.43;6.03;;;7.90;68.40;;;;;;6070070;29;20495;-74
2021/01/28 02:44:24;;;;;;;8.70;4.80;;;7.90;68.40;;;;;;6115175;29;20641;-74
2021/01/28 02:47:52;;;;;;;14.25;6.90;;;8.00;68.40;;;;;;6094288;29;20044;-74
2021/01/28 02:51:01;;;;;;;12.45;6.30;;;8.00;68.40;;;;;;6080911;29;20071;-74
2021/01/28 02:54:03;;;;;;;16.77;7.45;;;8.00;68.40;;;;;;6098699;29;20044;-75
2021/01/28 02:57:06;;;;;;;11.75;6.28;;;8.00;68.40;;;;;;6080617;29;20470;-74
2021/01/28 03:00:17;;;;;;;15.25;7.45;;;8.00;68.70;;;;;;6103249;29;20048;-74
2021/01/28 03:03:18;;;;;;;15.88;7.15;;;7.90;68.70;;;;;;6135786;28;20062;-73
2021/01/28 03:06:23;;;;;;;13.05;7.50;;;7.90;68.70;;;;;;6138505;29;20031;-74
2021/01/28 03:09:29;;;;;;;15.52;7.50;;;7.90;68.70;;;;;;6138746;29;20505;-74
2021/01/28 03:12:51;;;;;;;16.05;6.85;;;8.00;68.70;;;;;;6138008;29;20046;-74
2021/01/28 03:16:13;;;;;;;21.48;6.93;;;8.00;68.70;;;;;;6105501;29;20056;-74
2021/01/28 03:19:22;;;;;;;15.43;6.72;;;8.00;68.70;;;;;;6108453;29;20164;-74
2021/01/28 03:22:24;;;;;;;16.58;7.07;;;8.00;68.70;;;;;;6134689;29;20043;-74
2021/01/28 03:25:33;;;;;;;15.63;7.70;;;8.00;68.70;;;;;;6167507;28;20134;-74
2021/01/28 03:28:34;;;;;;;15.70;6.53;;;8.00;68.70;;;;;;6197692;28;20487;-74
2021/01/28 03:31:41;;;;;;;14.07;7.25;;;8.00;68.70;;;;;;6179607;28;20459;-75
2021/01/28 03:39:06;;;;;;;9.48;4.63;;;8.10;68.70;;;;;;6212081;28;20027;-74
2021/01/28 03:42:07;;;;;;;14.02;7.93;;;8.10;68.60;;;;;;6200021;28;20356;-74
2021/01/28 03:45:10;;;;;;;18.25;7.10;;;8.10;68.50;;;;;;6163778;28;20412;-74
2021/01/28 03:48:11;;;;;;;16.30;6.82;;;8.10;68.50;;;;;;6183192;28;20034;-75
2021/01/28 03:51:26;;;;;;;12.07;6.97;;;8.10;68.50;;;;;;6211051;28;20120;-75
2021/01/28 03:54:49;;;;;;;15.30;6.93;;;8.20;68.40;;;;;;6077675;29;20478;-74
2021/01/28 03:58:00;;;;;;;13.55;6.63;;;8.20;68.20;;;;;;6047532;29;20040;-75
2021/01/28 04:01:01;;;;;;;14.35;7.05;;;8.20;68.30;;;;;;6079818;29;20232;-74
2021/01/28 04:04:03;;;;;;;14.95;7.18;;;8.20;68.30;;;;;;6053259;29;20029;-74
2021/01/28 04:07:30;;;;;;;14.32;7.07;;;8.20;68.30;;;;;;6083858;29;20078;-75
2021/01/28 04:10:34;;;;;;;16.23;7.72;;;8.10;68.30;;;;;;6086308;29;20486;-74
2021/01/28 04:13:35;;;;;;;16.23;6.97;;;8.10;68.60;;;;;;6103371;29;20119;-74
2021/01/28 04:16:36;;;;;;;18.17;7.93;;;8.10;68.80;;;;;;6103484;29;20132;-74
2021/01/28 04:19:38;;;;;;;15.23;7.40;;;8.10;69.00;;;;;;6085642;29;20047;-74
2021/01/28 04:22:39;;;;;;;15.52;7.65;;;8.10;69.10;;;;;;6086722;29;20032;-74
2021/01/28 04:25:39;;;;;;;16.58;6.97;;;8.10;69.20;;;;;;6105158;29;20482;-73
2021/01/28 04:28:42;;;;;;;12.73;6.95;;;8.10;69.30;;;;;;6108329;29;20032;-74
2021/01/28 04:32:12;;;;;;;14.18;6.88;;;8.10;69.30;;;;;;6101443;29;20044;-74
2021/01/28 04:35:37;;;;;;;17.85;7.32;;;8.10;69.30;;;;;;6056403;29;20371;-75
2021/01/28 04:38:39;;;;;;;18.42;7.13;;;8.10;69.50;;;;;;6039395;29;20162;-75
2021/01/28 04:41:43;;;;;;;16.48;7.53;;;8.10;69.50;;;;;;6040035;29;20105;-74
2021/01/28 04:44:46;;;;;;;24.02;8.07;;;8.10;69.50;;;;;;6056133;29;20037;-75
2021/01/28 04:48:02;;;;;;;12.98;6.63;;;8.20;69.50;;;;;;6048400;29;20048;-75
2021/01/28 04:51:26;;;;;;;14.82;6.97;;;8.20;69.50;;;;;;6057586;29;20041;-75
2021/01/28 04:54:36;;;;;;;16.98;8.30;;;8.20;69.40;;;;;;6045386;29;20045;-75
2021/01/28 04:57:45;;;;;;;16.60;7.53;;;8.20;69.20;;;;;;6053959;29;20155;-76
2021/01/28 05:00:50;;;;;;;19.42;7.95;;;8.30;69.10;;;;;;6052842;29;20052;-75
2021/01/28 05:04:02;;;;;;;16.05;7.20;;;8.30;68.90;;;;;;6054574;29;20486;-76
2021/01/28 05:07:30;;;;;;;17.25;7.50;;;8.30;68.90;;;;;;6047807;29;20482;-76
2021/01/28 05:10:56;;;;;;;14.55;8.02;;;8.40;68.70;;;;;;6069344;29;20462;-73
2021/01/28 05:14:19;;;;;;;16.00;7.68;;;8.40;68.70;;;;;;6111480;29;20044;-74
2021/01/28 05:18:29;;;;;;;18.17;8.02;;;8.40;68.70;;;;;;6073882;29;20032;-73
2021/01/28 05:22:02;;;;;;;9.18;5.85;;;8.40;68.40;;;;;;6057849;29;20119;-74
2021/01/28 05:25:18;;;;;;;16.58;8.15;;;8.40;68.50;;;;;;6057587;29;20445;-74
2021/01/28 05:28:41;;;;;;;12.23;6.80;;;8.40;68.70;;;;;;6078023;29;20066;-74
2021/01/28 05:32:00;;;;;;;14.93;6.68;;;8.40;68.80;;;;;;6071268;29;20489;-74
2021/01/28 05:35:23;;;;;;;17.30;7.15;;;8.40;68.80;;;;;;6059796;29;20050;-75
2021/01/28 05:38:44;;;;;;;11.70;6.95;;;8.40;68.80;;;;;;6045237;29;20047;-75
2021/01/28 05:42:03;;;;;;;17.88;7.03;;;8.40;68.80;;;;;;6056483;29;20100;-74
2021/01/28 05:45:24;;;;;;;12.93;6.88;;;8.50;68.70;;;;;;6110543;28;20095;-75
2021/01/28 05:49:05;;;;;;;17.80;7.82;;;8.50;68.70;;;;;;6175370;28;20035;-74
2021/01/28 05:52:29;;;;;;;19.13;9.00;;;8.60;68.50;;;;;;6179101;28;20050;-74
2021/01/28 05:55:37;;;;;;;15.75;7.97;;;8.60;68.40;;;;;;6144413;28;20273;-74
2021/01/28 05:58:48;;;;;;;;;;;8.60;68.20;;;;;;6161714;28;20338;-75
2021/01/28 06:02:12;;;;;;;18.23;7.90;;;8.70;68.30;;;;;;6190860;28;19932;-74
2021/01/28 06:05:38;;;;;;;13.57;7.38;;;8.70;68.20;;;;;;6191862;28;20022;-74
2021/01/28 06:08:54;;;;;;;20.25;8.05;;;8.70;68.20;;;;;;6173082;28;20038;-74
2021/01/28 06:12:44;;;;;;;14.18;7.47;;;8.70;68.20;;;;;;6175754;28;20539;-74
2021/01/28 06:16:13;;;;;;;13.82;6.82;;;8.80;68.10;;;;;;6152781;28;20070;-75
2021/01/28 06:19:37;;;;;;;13.35;6.68;;;8.80;68.00;;;;;;6190345;28;20081;-74
2021/01/28 06:23:14;;;;;;;13.35;7.03;;;8.80;67.90;;;;;;6189152;28;20059;-74
2021/01/28 06:26:53;;;;;;;16.17;7.82;;;8.80;67.90;;;;;;6185551;28;20456;-74
2021/01/28 06:29:58;;;;;;;21.27;7.63;;;8.90;67.90;;;;;;6189355;28;20113;-74
2021/01/28 06:33:22;;;;;;;15.75;7.88;;;8.90;67.90;;;;;;6187382;28;20420;-75
2021/01/28 06:37:13;;;;;;;18.95;7.93;;;8.90;67.60;;;;;;6203580;28;20054;-74
2021/01/28 06:40:43;;;;;;;20.58;8.82;;;8.90;67.60;;;;;;6098896;29;20362;-75
2021/01/28 06:44:15;;;;;;;14.05;7.40;;;8.90;67.60;;;;;;6108553;29;20389;-75
2021/01/28 06:47:55;;;;;;;17.08;7.97;;;8.90;67.70;;;;;;6056678;29;20036;-74
2021/01/28 06:51:14;;;;;;;15.43;7.45;;;8.80;67.80;;;;;;6055104;29;20471;-74
2021/01/28 06:54:39;;;;;;;18.63;8.27;;;8.80;67.80;;;;;;6063355;29;20366;-74
2021/01/28 06:58:33;;;;;;;18.88;8.73;;;8.90;67.90;;;;;;5995413;29;20039;-74
2021/01/28 07:01:48;;;;;;;18.50;8.43;;;8.90;67.90;;;;;;5951895;29;857135;-75
2021/01/28 07:05:30;;;;;;;14.95;7.35;;;8.90;67.90;;;;;;6016040;29;20133;-75
2021/01/28 07:08:51;;;;;;;18.50;7.57;;;8.90;68.10;;;;;;6030965;29;20070;-75
2021/01/28 07:12:18;;;;;;;13.95;7.13;;;8.90;68.30;;;;;;6005658;29;20100;-75
2021/01/28 07:15:25;;;;;;;13.80;7.18;;;8.90;68.40;;;;;;6010544;29;20104;-75
2021/01/28 07:18:52;;;;;;;13.82;6.72;;;8.90;68.30;;;;;;6041487;29;20502;-75
2021/01/28 07:21:55;;;;;;;15.75;6.88;;;9.00;68.40;;;;;;6027786;29;20036;-75
2021/01/28 07:25:24;;;;;;;18.02;8.32;;;9.10;68.20;;;;;;6061355;29;20477;-74
2021/01/28 07:28:28;;;;;;;12.70;6.43;;;9.20;69.00;;;;;;6098398;28;20043;-75
2021/01/28 07:31:46;;;;;;;16.52;8.18;;;9.30;68.00;;;;;;6190863;28;20468;-75
2021/01/28 07:35:27;;;;;;;15.85;7.10;;;9.30;67.70;;;;;;6179980;28;20310;-74
2021/01/28 07:38:43;;;;;;;14.02;7.20;;;9.30;67.50;;;;;;6155079;28;20127;-75
2021/01/28 07:42:08;;;;;;;13.88;6.68;;;9.30;67.40;;;;;;6184947;28;20069;-75
2021/01/28 07:45:31;;;;;;;14.68;7.00;;;9.30;67.40;;;;;;6198150;28;20046;-74
2021/01/28 07:49:27;;;;;;;16.17;7.68;;;9.40;67.60;;;;;;6190887;28;20395;-75
2021/01/28 07:52:46;;;;;;;15.98;7.93;;;9.40;67.30;;;;;;6203234;28;20049;-75
2021/01/28 07:55:47;;;;;;;18.42;7.93;;;9.40;67.30;;;;;;6183940;28;20042;-74
2021/01/28 07:58:51;;;;;;;20.38;8.70;;;9.30;67.40;;;;;;6191336;28;20459;-75
2021/01/28 08:01:56;;;;;;;24.08;8.70;;;9.30;67.70;;;;;;6178156;28;20086;-75
2021/01/28 08:04:59;;;;;;;12.52;7.28;;;9.30;67.90;;;;;;6180183;28;20484;-74
2021/01/28 08:08:26;;;;;;;24.73;8.40;;;9.30;68.10;;;;;;6164281;28;20061;-76
2021/01/28 08:11:30;;;;;;;25.13;8.73;;;9.30;68.20;;;;;;6158560;28;20034;-75
2021/01/28 08:14:33;;;;;;;24.38;8.10;;;9.30;68.00;;;;;;6175593;28;20034;-75
2021/01/28 08:17:34;;;;;;;17.25;8.85;;;9.30;68.00;;;;;;6175834;28;20494;-75
2021/01/28 08:20:35;;;;;;;18.75;8.18;;;9.30;68.10;;;;;;6196032;28;20052;-75
2021/01/28 08:23:38;;;;;;;19.70;7.95;;;9.30;68.00;;;;;;6165268;28;20041;-76
2021/01/28 08:26:40;;;;;;;17.98;8.18;;;9.40;68.10;;;;;;6197032;28;20041;-75
2021/01/28 08:29:41;;;;;;;24.05;8.05;;;9.50;68.10;;;;;;6179311;28;20031;-75
2021/01/28 08:32:45;;;;;;;17.10;7.50;;;9.50;68.00;;;;;;6177400;28;20349;-75
2021/01/28 08:35:52;;;;;;;15.80;7.22;;;9.50;67.80;;;;;;6158344;28;20456;-75
2021/01/28 08:39:07;;;;;;;34.47;9.70;;;9.60;67.70;;;;;;6191385;28;20053;-74
2021/01/28 08:42:14;;;;;;;24.95;9.88;;;9.60;67.50;;;;;;6174136;28;20045;-75
2021/01/28 08:45:20;;;;;;;29.13;8.18;;;9.50;67.60;;;;;;6191679;28;20033;-74
2021/01/28 08:48:24;;;;;;;30.63;8.73;;;9.50;67.80;;;;;;6176229;28;20031;-75
2021/01/28 08:51:27;;;;;;;24.90;8.50;;;9.50;67.90;;;;;;6162524;28;20444;-74
2021/01/28 08:54:40;;;;;;;22.27;8.13;;;9.50;67.90;;;;;;6179294;28;20109;-74
2021/01/28 08:57:41;;;;;;;25.23;8.45;;;9.60;68.00;;;;;;6192883;28;20058;-74
2021/01/28 09:00:51;;;;;;;21.20;8.13;;;9.60;67.80;;;;;;6192329;28;20050;-75
2021/01/28 09:04:03;;;;;;;41.75;9.75;;;9.60;67.70;;;;;;6185594;28;20049;-75
2021/01/28 09:07:04;;;;;;;29.27;9.00;;;9.70;67.70;;;;;;6177064;28;20038;-74
2021/01/28 09:10:05;;;;;;;16.77;7.68;;;9.70;67.70;;;;;;6160635;28;20038;-75
2021/01/28 09:13:31;;;;;;;18.48;8.63;;;9.70;67.70;;;;;;6182412;28;20062;-75
2021/01/28 09:16:33;;;;;;;15.93;7.60;;;9.80;67.60;;;;;;6153030;28;20487;-75
2021/01/28 09:19:39;;;;;;;16.08;7.82;;;9.80;67.40;;;;;;6153363;28;20060;-76
2021/01/28 09:22:41;;;;;;;26.63;9.35;;;9.80;67.40;;;;;;6155162;28;20041;-74
2021/01/28 09:25:44;;;;;;;17.38;7.57;;;9.80;67.30;;;;;;6154858;28;20049;-75
2021/01/28 09:28:45;;;;;;;16.85;7.60;;;9.80;67.20;;;;;;6182196;28;20038;-74
2021/01/28 09:31:47;;;;;;;20.65;9.30;;;9.80;67.20;;;;;;6204290;28;20135;-76
2021/01/28 09:35:09;;;;;;;24.38;8.75;;;9.90;67.20;;;;;;6188211;28;20034;-74
2021/01/28 09:38:15;;;;;;;19.05;7.90;;;10.00;67.30;;;;;;6111317;29;20075;-75
2021/01/28 09:41:19;;;;;;;16.38;7.80;;;10.00;67.10;;;;;;6123557;29;20048;-76
2021/01/28 09:44:40;;;;;;;20.98;7.97;;;10.10;67.10;;;;;;6091471;29;20035;-75
2021/01/28 09:47:50;;;;;;;13.77;7.53;;;10.10;66.90;;;;;;6105372;29;20036;-76
2021/01/28 09:50:53;;;;;;;16.00;7.15;;;10.20;66.80;;;;;;6105123;29;20036;-75
2021/01/28 09:54:11;;;;;;;18.23;8.60;;;10.30;66.70;;;;;;6107806;29;20071;-76
2021/01/28 09:57:12;;;;;;;23.75;7.50;;;10.40;66.60;;;;;;6088794;29;20483;-75
2021/01/28 10:00:16;;;;;;;15.50;7.95;;;10.50;66.40;;;;;;6103344;29;20044;-76
2021/01/28 10:03:18;;;;;;;18.38;8.98;;;10.60;66.30;;;;;;6089800;29;20028;-74
2021/01/28 10:06:19;;;;;;;35.58;15.57;;;10.60;66.20;;;;;;6104640;29;20106;-75
2021/01/28 10:09:20;;;;;;;38.22;12.93;;;10.70;66.00;;;;;;6122305;29;20118;-75
2021/01/28 10:12:25;;;;;;;37.75;11.20;;;10.80;65.90;;;;;;6079874;29;20038;-76
2021/01/28 10:15:26;;;;;;;30.52;10.80;;;10.90;65.70;;;;;;6161427;28;20044;-77
2021/01/28 10:18:27;;;;;;;26.20;9.07;;;10.90;65.50;;;;;;6192093;28;20038;-76
2021/01/28 10:21:28;;;;;;;45.80;11.77;;;10.90;65.30;;;;;;6205582;28;20030;-75
2021/01/28 10:24:29;;;;;;;31.42;12.27;;;11.00;65.40;;;;;;6183116;28;20035;-76
2021/01/28 10:27:30;;;;;;;22.80;11.73;;;11.10;65.40;;;;;;6194049;28;20574;-75
2021/01/28 10:30:31;;;;;;;30.85;10.60;;;11.20;65.40;;;;;;6178090;28;20046;-75
2021/01/28 10:33:34;;;;;;;23.13;9.65;;;11.20;65.10;;;;;;6176364;28;20117;-75
2021/01/28 10:36:35;;;;;;;17.58;8.98;;;11.30;64.90;;;;;;6194856;28;20034;-75
2021/01/28 10:39:37;;;;;;;47.72;12.35;;;11.40;64.70;;;;;;6198052;28;20332;-76
2021/01/28 10:42:40;;;;;;;20.42;9.00;;;11.50;64.50;;;;;;6177558;28;20030;-76
2021/01/28 10:45:41;;;;;;;40.90;9.57;;;11.60;64.50;;;;;;6186301;28;20444;-76
2021/01/28 10:48:42;;;;;;;24.77;9.48;;;11.60;64.30;;;;;;6207151;28;20034;-75
2021/01/28 10:51:44;;;;;;;21.45;8.85;;;11.60;64.30;;;;;;6175442;28;20045;-75
2021/01/28 10:54:45;;;;;;;34.85;14.55;;;11.70;64.50;;;;;;6194464;28;20031;-75
2021/01/28 10:57:46;;;;;;;31.23;12.88;;;11.70;64.40;;;;;;6186659;28;20026;-75
2021/01/28 11:00:47;;;;;;;24.02;10.02;;;11.70;64.20;;;;;;6174504;28;20044;-75
2021/01/28 11:03:48;;;;;;;20.23;9.57;;;11.70;64.20;;;;;;6190836;28;20026;-75
2021/01/28 11:06:49;;;;;;;19.92;8.45;;;11.70;64.30;;;;;;6198742;28;20041;-76
2021/01/28 11:09:50;;;;;;;25.40;11.02;;;11.70;64.20;;;;;;6199601;28;20030;-75
2021/01/28 11:12:56;;;;;;;21.70;9.68;;;11.70;64.30;;;;;;6186928;28;20080;-76
2021/01/28 11:15:57;;;;;;;18.13;9.43;;;11.70;64.00;;;;;;6209657;28;20530;-75
2021/01/28 11:18:58;;;;;;;22.35;11.13;;;11.60;64.00;;;;;;6215522;28;20050;-74
2021/01/28 11:21:59;;;;;;;15.20;7.85;;;11.70;64.20;;;;;;6198389;28;20038;-76
2021/01/28 11:25:00;;;;;;;23.88;9.95;;;11.60;64.20;;;;;;6197963;28;20344;-76
2021/01/28 11:28:02;;;;;;;23.20;8.50;;;11.60;64.40;;;;;;6227910;28;20364;-75
2021/01/28 11:31:03;;;;;;;23.20;9.70;;;11.50;64.70;;;;;;6178769;28;20509;-76
2021/01/28 11:34:05;;;;;;;18.80;9.18;;;11.40;64.90;;;;;;6199272;28;20498;-75
2021/01/28 11:37:06;;;;;;;21.30;8.35;;;11.40;65.20;;;;;;6218579;28;20428;-75
2021/01/28 11:40:07;;;;;;;21.23;9.95;;;11.40;65.40;;;;;;6180626;28;20038;-75
2021/01/28 11:43:08;;;;;;;18.10;8.77;;;11.30;65.70;;;;;;6198539;28;20038;-75
2021/01/28 11:46:09;;;;;;;22.92;9.73;;;11.30;65.90;;;;;;6184406;28;20026;-76
2021/01/28 11:49:12;;;;;;;19.42;9.45;;;11.30;66.00;;;;;;6185696;28;20042;-75
2021/01/28 11:52:13;;;;;;;22.33;10.27;;;11.30;66.30;;;;;;6216486;28;20072;-75
2021/01/28 11:55:17;;;;;;;21.85;10.55;;;11.30;66.60;;;;;;6196568;28;20444;-74
2021/01/28 11:58:20;;;;;;;20.50;10.35;;;11.30;66.80;;;;;;6202956;28;20041;-75
2021/01/28 12:01:22;;;;;;;24.08;10.63;;;11.30;66.90;;;;;;6195445;28;20074;-75
2021/01/28 12:04:23;;;;;;;24.38;11.30;;;11.30;67.10;;;;;;6198531;28;20034;-75
2021/01/28 12:07:24;;;;;;;22.52;10.82;;;11.30;67.30;;;;;;6196632;28;20100;-75
2021/01/28 12:10:26;;;;;;;22.45;10.52;;;11.30;67.50;;;;;;6173006;28;20073;-75
2021/01/28 12:13:27;;;;;;;22.40;10.63;;;11.30;67.70;;;;;;6179785;28;20062;-75
2021/01/28 12:16:28;;;;;;;15.80;8.90;;;11.30;67.80;;;;;;6193922;28;20391;-75
2021/01/28 12:19:29;;;;;;;23.48;10.73;;;11.40;67.80;;;;;;6193020;28;20038;-75
2021/01/28 12:22:30;;;;;;;18.40;10.10;;;11.40;67.80;;;;;;6195822;28;20383;-75
2021/01/28 12:25:31;;;;;;;20.42;8.93;;;11.40;67.70;;;;;;6176889;28;20039;-76
2021/01/28 12:28:32;;;;;;;22.27;10.25;;;11.40;67.70;;;;;;6191236;28;20058;-74
2021/01/28 12:31:33;;;;;;;24.65;10.90;;;11.40;67.70;;;;;;6194365;28;20039;-74
2021/01/28 12:34:34;;;;;;;21.85;9.77;;;11.40;68.20;;;;;;6179136;28;20077;-75
2021/01/28 12:37:36;;;;;;;26.73;10.85;;;11.40;67.90;;;;;;6201513;28;20042;-74
2021/01/28 12:40:37;;;;;;;41.58;10.95;;;11.40;68.00;;;;;;6192107;28;20062;-76
2021/01/28 12:43:38;;;;;;;21.35;10.50;;;11.40;68.00;;;;;;6211326;28;20034;-73
2021/01/28 12:46:38;;;;;;;17.90;8.90;;;11.50;68.00;;;;;;6207070;28;20038;-75
2021/01/28 12:49:39;;;;;;;18.90;8.38;;;11.50;68.10;;;;;;6201440;28;20440;-73
2021/01/28 12:52:40;;;;;;;22.85;8.98;;;11.60;68.10;;;;;;6176165;28;20061;-76
2021/01/28 12:55:41;;;;;;;32.92;11.55;;;11.60;68.10;;;;;;6179064;28;20030;-74
2021/01/28 12:58:42;;;;;;;16.02;8.60;;;11.80;68.10;;;;;;6146376;28;20113;-75
2021/01/28 13:01:43;;;;;;;26.45;8.75;;;11.80;67.90;;;;;;6208809;28;20133;-75
2021/01/28 13:04:44;;;;;;;18.23;9.55;;;11.90;67.80;;;;;;6164701;28;20367;-75
2021/01/28 13:07:45;;;;;;;24.98;8.77;;;12.00;67.70;;;;;;6180331;28;20038;-74
2021/01/28 13:10:46;;;;;;;17.38;8.50;;;12.00;67.60;;;;;;6178180;28;20039;-76
2021/01/28 13:13:47;;;;;;;16.45;8.10;;;12.10;67.50;;;;;;6178693;28;20046;-76
2021/01/28 13:16:48;;;;;;;15.02;8.00;;;12.20;67.50;;;;;;6162906;28;20037;-76
2021/01/28 13:19:51;;;;;;;18.10;8.32;;;12.20;67.40;;;;;;6163945;28;20482;-75
2021/01/28 13:22:52;;;;;;;23.83;9.13;;;12.20;67.40;;;;;;6196231;28;20459;-74
2021/01/28 13:25:53;;;;;;;18.65;8.77;;;12.30;67.40;;;;;;6179357;28;20040;-75
2021/01/28 13:28:54;;;;;;;16.48;7.90;;;12.30;67.30;;;;;;6165034;28;20034;-75
2021/01/28 13:31:55;;;;;;;22.77;8.35;;;12.30;67.20;;;;;;6195740;28;20045;-74
2021/01/28 13:34:56;;;;;;;17.40;7.93;;;12.30;67.20;;;;;;6162860;28;20039;-75
2021/01/28 13:37:58;;;;;;;41.75;11.85;;;12.40;67.20;;;;;;6156239;28;20081;-74
2021/01/28 13:40:59;;;;;;;28.20;9.50;;;12.40;67.30;;;;;;6167965;28;20105;-76
2021/01/28 13:43:59;;;;;;;23.63;9.25;;;12.40;67.30;;;;;;6160739;28;20049;-75
2021/01/28 13:47:00;;;;;;;37.75;9.32;;;12.40;67.40;;;;;;6178479;28;20069;-76
2021/01/28 13:50:03;;;;;;;12.32;6.20;;;12.50;67.50;;;;;;6179300;28;20035;-75
2021/01/28 13:53:04;;;;;;;29.73;8.23;;;12.50;67.40;;;;;;6177396;28;20104;-75
2021/01/28 13:56:06;;;;;;;23.85;8.88;;;12.50;67.40;;;;;;6177199;28;20038;-76
2021/01/28 13:59:07;;;;;;;16.75;7.85;;;12.50;67.50;;;;;;6197053;28;20042;-75
2021/01/28 14:02:08;;;;;;;25.13;8.68;;;12.60;67.50;;;;;;6203667;28;20486;-75
2021/01/28 14:05:09;;;;;;;50.08;10.63;;;12.60;67.50;;;;;;6202137;28;20099;-75
2021/01/28 14:08:10;;;;;;;22.33;7.97;;;12.60;67.50;;;;;;6201287;28;20042;-76
2021/01/28 14:11:11;;;;;;;17.63;7.40;;;12.60;67.70;;;;;;6201863;28;20030;-75
2021/01/28 14:14:12;;;;;;;18.88;7.20;;;12.50;67.80;;;;;;6201853;28;20061;-76
2021/01/28 14:17:13;;;;;;;26.27;7.63;;;12.50;67.90;;;;;;6204022;28;20453;-76
2021/01/28 14:20:15;;;;;;;33.55;9.30;;;12.50;67.90;;;;;;6202840;28;20034;-74
2021/01/28 14:23:17;;;;;;;22.58;7.80;;;12.60;68.00;;;;;;6185970;28;20045;-75
2021/01/28 14:26:19;;;;;;;32.08;10.00;;;12.60;68.10;;;;;;6202254;28;20129;-75
2021/01/28 14:29:19;;;;;;;37.70;11.13;;;12.70;68.90;;;;;;6185550;28;20467;-76
2021/01/28 14:32:21;;;;;;;28.00;12.25;;;12.70;68.20;;;;;;6199779;28;20048;-76
2021/01/28 14:35:22;;;;;;;40.88;12.02;;;12.70;68.30;;;;;;6218197;28;20034;-74
2021/01/28 14:38:23;;;;;;;29.30;12.40;;;12.70;68.30;;;;;;6200852;28;20053;-77
2021/01/28 14:41:25;;;;;;;53.58;12.98;;;12.80;68.30;;;;;;6201774;28;20099;-75
2021/01/28 14:44:26;;;;;;;23.58;10.70;;;12.70;68.30;;;;;;6218297;28;20121;-74
2021/01/28 14:47:27;;;;;;;20.08;9.77;;;12.70;68.40;;;;;;6202042;28;20346;-75
2021/01/28 14:50:28;;;;;;;20.20;10.02;;;12.80;68.50;;;;;;6219278;28;20026;-75
2021/01/28 14:53:29;;;;;;;17.65;9.05;;;12.80;68.40;;;;;;6183531;28;20042;-75
2021/01/28 14:56:36;;;;;;;18.15;8.50;;;12.80;68.30;;;;;;6216572;28;20092;-75
2021/01/28 14:59:37;;;;;;;17.90;8.85;;;12.90;68.30;;;;;;6203585;28;20042;-75
2021/01/28 15:02:38;;;;;;;37.05;9.50;;;12.90;68.20;;;;;;6201169;28;20407;-75
2021/01/28 15:05:39;;;;;;;31.00;9.55;;;12.90;68.10;;;;;;6203257;28;20044;-74
2021/01/28 15:08:40;;;;;;;14.60;8.32;;;12.80;68.10;;;;;;6202035;28;20192;-74
2021/01/28 15:11:41;;;;;;;20.42;9.93;;;12.80;68.30;;;;;;6203471;28;20046;-74
2021/01/28 15:14:42;;;;;;;14.82;8.35;;;12.80;68.40;;;;;;6201048;28;20420;-74
2021/01/28 15:17:43;;;;;;;23.15;9.27;;;12.70;68.50;;;;;;6202358;28;20050;-75
2021/01/28 15:20:44;;;;;;;31.08;12.05;;;12.70;68.70;;;;;;6186447;28;20133;-76
2021/01/28 15:23:45;;;;;;;50.13;20.17;;;12.70;69.00;;;;;;6215025;28;20045;-73
2021/01/28 15:26:46;;;;;;;37.15;15.68;;;12.70;69.20;;;;;;6207995;28;20472;-75
2021/01/28 15:29:47;;;;;;;30.23;12.93;;;12.70;69.30;;;;;;6199619;28;20057;-75
2021/01/28 15:32:52;;;;;;;35.13;12.50;;;12.60;69.40;;;;;;6220132;28;20045;-74
2021/01/28 15:35:53;;;;;;;26.95;12.48;;;12.50;69.50;;;;;;6222693;28;20547;-74
2021/01/28 15:38:56;;;;;;;32.97;13.95;;;12.50;69.70;;;;;;6207152;28;20030;-75
2021/01/28 15:41:57;;;;;;;31.75;13.40;;;12.40;69.70;;;;;;6204899;28;20045;-75
2021/01/28 15:44:58;;;;;;;29.45;12.77;;;12.30;69.80;;;;;;6203513;28;20102;-75
2021/01/28 15:47:58;;;;;;;24.05;11.75;;;12.20;69.90;;;;;;6207445;28;20041;-76
2021/01/28 15:50:59;;;;;;;25.98;11.65;;;12.20;70.00;;;;;;6205862;28;20049;-75
2021/01/28 15:54:00;;;;;;;26.65;11.13;;;12.20;70.20;;;;;;6223881;28;20515;-75
2021/01/28 15:57:03;;;;;;;20.48;10.52;;;12.10;70.40;;;;;;6205371;28;20034;-74
2021/01/28 16:00:05;;;;;;;23.77;10.93;;;12.00;70.60;;;;;;6190492;28;20132;-75
2021/01/28 16:03:07;;;;;;;26.83;11.85;;;12.00;71.00;;;;;;6192661;28;20101;-76
2021/01/28 16:06:08;;;;;;;20.88;9.45;;;11.90;71.10;;;;;;6167832;28;20044;-75
2021/01/28 16:09:09;;;;;;;23.48;11.05;;;11.90;71.30;;;;;;6206785;28;20096;-75
2021/01/28 16:12:13;;;;;;;21.58;10.10;;;11.90;71.30;;;;;;6205324;28;20391;-74
2021/01/28 16:15:15;;;;;;;18.88;8.65;;;11.90;71.30;;;;;;6181445;28;20035;-75